createdAt,value
2023-05-13T00:02:10.412Z,128.40
2023-05-13T00:04:42.684Z,131.00
2023-05-13T00:07:14.686Z,135.38
2023-05-13T00:09:46.853Z,144.43
2023-05-13T00:12:19.989Z,155.63
2023-05-13T00:14:51.504Z,146.70
2023-05-13T00:17:23.498Z,167.60
2023-05-13T00:19:54.572Z,166.95
2023-05-13T00:22:25.397Z,181.13
2023-05-13T00:24:57.149Z,181.77
2023-05-13T00:27:28.873Z,174.70
2023-05-13T00:30:02.354Z,240.77
2023-05-13T00:32:35.385Z,191.60
2023-05-13T00:37:37.395Z,154.82
2023-05-13T00:40:17.840Z,124.07
2023-05-13T00:42:50.936Z,114.85
2023-05-13T00:45:24.553Z,156.30
2023-05-13T00:47:57.734Z,127.28
2023-05-13T00:50:27.295Z,124.47
2023-05-13T00:52:58.709Z,70.07
2023-05-13T00:55:28.077Z,70.53
2023-05-13T00:57:57.041Z,90.28
2023-05-13T01:00:26.871Z,86.50
2023-05-13T01:03:07.643Z,92.00
2023-05-13T01:06:11.950Z,94.53
2023-05-13T01:08:41.189Z,76.53
2023-05-13T01:11:17.902Z,103.43
2023-05-13T01:13:50.630Z,78.10
2023-05-13T01:16:56.956Z,66.65
2023-05-13T01:19:48.669Z,57.05
2023-05-13T01:22:18.139Z,45.95
2023-05-13T01:24:47.337Z,46.72
2023-05-13T01:27:16.750Z,67.82
2023-05-13T01:29:46.957Z,57.58
2023-05-13T01:32:22.077Z,69.15
2023-05-13T01:34:53.680Z,63.50
2023-05-13T01:39:53.551Z,66.97
2023-05-13T01:42:24.304Z,80.50
2023-05-13T01:44:53.499Z,108.65
2023-05-13T01:47:23.330Z,93.22
2023-05-13T01:49:52.848Z,91.30
2023-05-13T01:52:22.038Z,72.25
2023-05-13T01:54:51.408Z,77.22
2023-05-13T01:57:22.098Z,83.47
2023-05-13T01:59:51.329Z,71.22
2023-05-13T02:02:20.482Z,91.10
2023-05-13T02:04:50.336Z,78.97
2023-05-13T02:07:19.422Z,101.60
2023-05-13T02:09:49.637Z,82.43
2023-05-13T02:12:18.851Z,90.03
2023-05-13T02:14:47.737Z,100.75
2023-05-13T02:17:17.162Z,104.63
2023-05-13T02:19:46.320Z,108.53
2023-05-13T02:22:17.389Z,61.72
2023-05-13T02:24:46.837Z,72.28
2023-05-13T02:27:17.626Z,82.85
2023-05-13T02:29:47.241Z,71.90
2023-05-13T02:32:16.327Z,80.80
2023-05-13T02:34:46.300Z,77.88
2023-05-13T02:37:15.609Z,99.75
2023-05-13T02:39:52.925Z,67.90
2023-05-13T02:42:22.163Z,84.03
2023-05-13T02:44:51.284Z,103.07
2023-05-13T02:47:21.406Z,95.35
2023-05-13T02:49:51.019Z,100.97
2023-05-13T02:52:20.273Z,78.93
2023-05-13T02:54:49.380Z,86.32
2023-05-13T02:57:19.354Z,59.13
2023-05-13T02:59:48.311Z,73.25
2023-05-13T03:02:17.535Z,67.55
2023-05-13T03:04:46.661Z,47.13
2023-05-13T03:07:16.280Z,57.40
2023-05-13T03:09:45.226Z,33.53
2023-05-13T03:12:14.586Z,51.03
2023-05-13T03:14:45.346Z,51.20
2023-05-13T03:17:14.702Z,30.85
2023-05-13T03:19:43.623Z,41.10
2023-05-13T03:22:12.715Z,42.22
2023-05-13T03:24:42.672Z,45.05
2023-05-13T03:27:12.703Z,99.28
2023-05-13T03:29:42.166Z,44.28
2023-05-13T03:32:11.596Z,38.30
2023-05-13T03:34:40.885Z,38.75
2023-05-13T03:37:10.832Z,39.80
2023-05-13T03:39:39.884Z,32.97
2023-05-13T03:42:08.996Z,42.72
2023-05-13T03:44:38.868Z,23.02
2023-05-13T03:47:08.401Z,41.38
2023-05-13T03:49:38.024Z,31.02
2023-05-13T03:52:10.389Z,38.63
2023-05-13T03:54:39.671Z,30.08
2023-05-13T03:57:09.226Z,31.85
2023-05-13T03:59:38.545Z,24.73
2023-05-13T04:02:07.528Z,31.20
2023-05-13T04:04:36.967Z,32.97
2023-05-13T04:07:06.462Z,15.65
2023-05-13T04:09:35.510Z,22.27
2023-05-13T04:12:04.632Z,25.45
2023-05-13T04:14:33.770Z,18.23
2023-05-13T04:17:02.799Z,38.13
2023-05-13T04:19:32.008Z,20.77
2023-05-13T04:22:00.981Z,23.70
2023-05-13T04:24:30.109Z,26.02
2023-05-13T04:27:00.745Z,16.52
2023-05-13T04:29:31.668Z,36.17
2023-05-13T04:32:00.998Z,28.92
2023-05-13T04:34:30.053Z,21.98
2023-05-13T04:36:59.298Z,13.85
2023-05-13T04:39:28.228Z,19.80
2023-05-13T04:41:57.408Z,17.27
2023-05-13T04:44:26.942Z,32.28
2023-05-13T04:46:55.990Z,27.65
2023-05-13T04:49:24.875Z,20.55
2023-05-13T04:51:55.168Z,31.55
2023-05-13T04:54:25.611Z,14.43
2023-05-13T04:56:54.571Z,26.40
2023-05-13T04:59:24.076Z,33.10
2023-05-13T05:01:53.316Z,19.23
2023-05-13T05:04:22.364Z,22.33
2023-05-13T05:06:52.362Z,20.33
2023-05-13T05:09:21.405Z,21.58
2023-05-13T05:11:52.779Z,10.57
2023-05-13T05:16:53.556Z,18.77
2023-05-13T05:19:24.973Z,14.35
2023-05-13T05:21:56.391Z,33.58
2023-05-13T05:24:25.619Z,21.20
2023-05-13T05:26:54.967Z,14.65
2023-05-13T05:29:24.319Z,29.35
2023-05-13T05:31:53.463Z,30.60
2023-05-13T05:34:22.818Z,16.77
2023-05-13T05:36:52.053Z,22.77
2023-05-13T05:39:22.189Z,31.27
2023-05-13T05:41:51.940Z,28.40
2023-05-13T05:44:21.089Z,18.10
2023-05-13T05:46:50.327Z,21.08
2023-05-13T05:49:19.155Z,19.77
2023-05-13T05:51:48.576Z,21.80
2023-05-13T05:54:17.604Z,17.88
2023-05-13T05:56:46.636Z,31.67
2023-05-13T05:59:15.625Z,29.17
2023-05-13T06:01:44.950Z,21.13
2023-05-13T06:04:13.843Z,29.40
2023-05-13T06:06:43.385Z,22.88
2023-05-13T06:09:12.455Z,31.05
2023-05-13T06:11:41.806Z,25.08
2023-05-13T06:14:11.775Z,34.03
2023-05-13T06:16:40.787Z,21.17
2023-05-13T06:19:09.873Z,23.35
2023-05-13T06:21:39.112Z,27.90
2023-05-13T06:24:08.447Z,25.73
2023-05-13T06:26:37.688Z,19.38
2023-05-13T06:29:07.645Z,32.45
2023-05-13T06:31:36.835Z,38.33
2023-05-13T06:34:06.121Z,27.00
2023-05-13T06:36:35.526Z,23.33
2023-05-13T06:39:07.385Z,24.85
2023-05-13T06:41:38.863Z,14.40
2023-05-13T06:44:12.441Z,21.65
2023-05-13T06:46:46.415Z,13.85
2023-05-13T06:49:15.665Z,19.13
2023-05-13T06:51:44.638Z,14.07
2023-05-13T06:54:13.744Z,13.50
2023-05-13T06:56:42.864Z,16.48
2023-05-13T06:59:12.993Z,31.05
2023-05-13T07:01:43.297Z,10.65
2023-05-13T07:04:12.550Z,21.02
2023-05-13T07:06:41.776Z,24.08
2023-05-13T07:09:10.907Z,25.00
2023-05-13T07:11:40.270Z,13.65
2023-05-13T07:14:09.115Z,13.23
2023-05-13T07:16:38.194Z,27.58
2023-05-13T07:19:07.176Z,18.13
2023-05-13T07:21:36.919Z,24.65
2023-05-13T07:24:06.528Z,24.48
2023-05-13T07:26:37.366Z,23.25
2023-05-13T07:29:07.292Z,21.30
2023-05-13T07:31:41.978Z,16.40
2023-05-13T07:34:17.642Z,22.75
2023-05-13T07:36:49.809Z,25.85
2023-05-13T07:39:21.927Z,23.23
2023-05-13T07:44:22.071Z,24.67
2023-05-13T07:46:54.975Z,25.05
2023-05-13T07:49:29.567Z,31.27
2023-05-13T07:52:01.299Z,19.17
2023-05-13T07:54:32.301Z,21.77
2023-05-13T07:57:03.066Z,29.90
2023-05-13T07:59:34.148Z,27.60
2023-05-13T08:02:03.422Z,14.52
2023-05-13T08:04:34.900Z,35.22
2023-05-13T08:07:04.220Z,16.23
2023-05-13T08:09:33.086Z,28.58
2023-05-13T08:12:02.125Z,17.88
2023-05-13T08:14:31.424Z,22.10
2023-05-13T08:17:00.656Z,18.38
2023-05-13T08:19:29.637Z,19.05
2023-05-13T08:21:58.793Z,16.85
2023-05-13T08:24:28.250Z,20.77
2023-05-13T08:26:58.208Z,24.63
2023-05-13T08:29:27.234Z,42.50
2023-05-13T08:31:56.271Z,17.35
2023-05-13T08:34:25.434Z,19.25
2023-05-13T08:36:54.403Z,25.40
2023-05-13T08:39:23.748Z,21.50
2023-05-13T08:41:57.941Z,25.30
2023-05-13T08:44:30.214Z,44.20
2023-05-13T08:47:31.630Z,34.58
2023-05-13T08:50:01.150Z,23.17
2023-05-13T08:52:30.271Z,28.38
2023-05-13T08:55:05.636Z,27.70
2023-05-13T08:57:34.857Z,30.35
2023-05-13T09:00:05.822Z,25.48
2023-05-13T09:02:36.256Z,28.77
2023-05-13T09:05:09.692Z,21.80
2023-05-13T09:07:40.290Z,25.98
2023-05-13T09:10:11.321Z,25.42
2023-05-13T09:12:56.697Z,14.87
2023-05-13T09:15:28.547Z,18.33
2023-05-13T09:18:04.898Z,16.05
2023-05-13T09:20:34.909Z,16.38
2023-05-13T09:23:04.955Z,20.05
2023-05-13T09:25:34.602Z,22.92
2023-05-13T09:28:06.080Z,25.00
2023-05-13T09:30:39.635Z,33.40
2023-05-13T09:33:16.496Z,28.60
2023-05-13T09:35:50.510Z,18.63
2023-05-13T09:38:26.189Z,14.77
2023-05-13T09:40:59.144Z,35.92
2023-05-13T09:43:33.302Z,25.30
2023-05-13T09:46:04.758Z,23.15
2023-05-13T09:48:35.377Z,23.48
2023-05-13T09:51:04.569Z,28.02
2023-05-13T09:56:33.135Z,22.92
2023-05-13T09:59:08.684Z,35.17
2023-05-13T10:01:40.757Z,23.58
2023-05-13T10:04:10.290Z,23.92
2023-05-13T10:06:39.989Z,20.98
2023-05-13T10:09:12.237Z,24.83
2023-05-13T10:11:45.431Z,25.63
2023-05-13T10:14:15.278Z,23.42
2023-05-13T10:16:44.947Z,19.20
2023-05-13T10:19:14.586Z,20.50
2023-05-13T10:21:44.012Z,22.40
2023-05-13T10:24:14.908Z,17.38
2023-05-13T10:26:45.460Z,152.93
2023-05-13T10:29:15.293Z,254.10
2023-05-13T10:31:46.036Z,40.58
2023-05-13T10:34:15.335Z,38.47
2023-05-13T10:37:15.389Z,18.88
2023-05-13T10:40:19.773Z,16.88
2023-05-13T10:43:18.156Z,32.25
2023-05-13T10:46:07.981Z,33.15
2023-05-13T10:48:48.760Z,31.45
2023-05-13T10:51:23.764Z,24.20
2023-05-13T10:53:59.696Z,27.05
2023-05-13T10:56:30.015Z,24.35
2023-05-13T10:59:06.810Z,31.73
2023-05-13T11:01:48.167Z,25.15
2023-05-13T11:04:19.531Z,29.63
2023-05-13T11:06:50.780Z,23.80
2023-05-13T11:09:25.352Z,31.58
2023-05-13T11:11:55.989Z,31.45
2023-05-13T11:14:26.960Z,35.00
2023-05-13T11:17:10.765Z,41.40
2023-05-13T11:19:47.860Z,24.85
2023-05-13T11:22:18.353Z,20.05
2023-05-13T11:25:05.017Z,36.58
2023-05-13T11:27:44.964Z,24.75
2023-05-13T11:30:28.945Z,25.40
2023-05-13T11:33:00.579Z,40.42
2023-05-13T11:38:05.385Z,32.03
2023-05-13T11:40:36.506Z,26.50
2023-05-13T11:43:07.250Z,29.90
2023-05-13T11:45:42.157Z,36.65
2023-05-13T11:48:25.147Z,28.10
2023-05-13T11:50:57.999Z,27.05
2023-05-13T11:53:27.195Z,22.15
2023-05-13T11:55:56.589Z,32.90
2023-05-13T11:58:25.833Z,21.15
2023-05-13T12:00:56.408Z,34.45
2023-05-13T12:03:25.834Z,21.85
2023-05-13T12:06:03.212Z,18.67
2023-05-13T12:08:32.844Z,22.52
2023-05-13T12:11:02.027Z,37.95
2023-05-13T12:13:31.243Z,34.67
2023-05-13T12:16:00.444Z,34.30
2023-05-13T12:18:29.466Z,18.17
2023-05-13T12:20:58.635Z,43.10
2023-05-13T12:23:27.904Z,37.03
2023-05-13T12:25:56.802Z,32.60
2023-05-13T12:28:27.804Z,33.88
2023-05-13T12:31:01.429Z,32.35
2023-05-13T12:33:35.602Z,58.08
2023-05-13T12:36:21.609Z,38.83
2023-05-13T12:39:05.347Z,28.85
2023-05-13T12:41:42.563Z,45.22
2023-05-13T12:44:15.390Z,20.90
2023-05-13T12:46:55.491Z,26.08
2023-05-13T12:49:24.623Z,28.20
2023-05-13T12:51:53.593Z,41.25
2023-05-13T12:58:21.977Z,37.63
2023-05-13T13:00:51.256Z,43.83
2023-05-13T13:03:21.775Z,46.08
2023-05-13T13:05:53.536Z,49.95
2023-05-13T13:08:22.703Z,34.95
2023-05-13T13:10:52.052Z,29.58
2023-05-13T13:13:21.101Z,38.80
2023-05-13T13:16:30.146Z,44.38
2023-05-13T13:19:01.924Z,43.28
2023-05-13T13:21:31.017Z,52.55
2023-05-13T13:23:59.641Z,30.42
2023-05-13T13:26:28.703Z,30.88
2023-05-13T13:28:57.379Z,29.60
2023-05-13T13:31:26.229Z,32.83
2023-05-13T13:33:55.052Z,32.25
2023-05-13T13:36:23.917Z,35.78
2023-05-13T13:38:52.628Z,52.92
2023-05-13T13:41:22.064Z,47.30
2023-05-13T13:43:50.788Z,36.75
2023-05-13T13:46:19.686Z,52.38
2023-05-13T13:48:48.496Z,38.25
2023-05-13T13:51:17.383Z,49.22
2023-05-13T13:53:46.084Z,38.97
2023-05-13T13:56:14.984Z,51.20
2023-05-13T13:58:43.546Z,49.92
2023-05-13T14:01:12.562Z,54.60
2023-05-13T14:03:41.436Z,47.53
2023-05-13T14:06:10.384Z,51.45
2023-05-13T14:08:39.223Z,53.58
2023-05-13T14:11:08.272Z,52.13
2023-05-13T14:13:36.947Z,42.00
2023-05-13T14:16:06.550Z,49.75
2023-05-13T14:18:35.497Z,61.47
2023-05-13T14:21:04.460Z,57.90
2023-05-13T14:23:33.093Z,65.72
2023-05-13T14:26:02.097Z,60.63
2023-05-13T14:28:30.700Z,66.78
2023-05-13T14:30:59.828Z,58.08
2023-05-13T14:33:28.541Z,55.28
2023-05-13T14:35:57.504Z,63.35
2023-05-13T14:38:28.462Z,61.50
2023-05-13T14:40:57.597Z,53.63
2023-05-13T14:51:13.544Z,71.53
2023-05-13T14:53:44.188Z,70.28
2023-05-13T14:56:13.559Z,74.18
2023-05-13T14:58:42.780Z,70.40
2023-05-13T15:01:12.618Z,71.88
2023-05-13T15:03:42.468Z,77.13
2023-05-13T15:06:12.644Z,105.30
2023-05-13T15:08:42.428Z,92.85
2023-05-13T15:11:11.675Z,96.63
2023-05-13T15:13:41.394Z,87.15
2023-05-13T15:16:11.041Z,87.00
2023-05-13T15:18:40.339Z,100.80
2023-05-13T15:21:09.348Z,79.72
2023-05-13T15:23:38.668Z,79.20
2023-05-13T15:26:07.617Z,81.45
2023-05-13T15:29:23.241Z,92.43
2023-05-13T15:31:52.400Z,80.15
2023-05-13T15:34:21.456Z,80.32
2023-05-13T15:36:50.699Z,77.57
2023-05-13T15:39:19.656Z,71.50
2023-05-13T15:41:49.857Z,68.40
2023-05-13T15:44:19.035Z,75.70
2023-05-13T15:46:49.643Z,78.70
2023-05-13T15:49:19.193Z,83.60
2023-05-13T15:51:48.064Z,98.50
2023-05-13T15:54:17.157Z,124.70
2023-05-13T15:56:46.138Z,114.40
2023-05-13T15:59:15.243Z,65.97
2023-05-13T16:01:45.859Z,72.97
2023-05-13T16:04:15.267Z,57.50
2023-05-13T16:06:44.279Z,61.50
2023-05-13T16:09:13.759Z,66.13
2023-05-13T16:11:44.548Z,53.30
2023-05-13T16:14:13.679Z,66.35
2023-05-13T16:16:42.788Z,49.97
2023-05-13T16:19:12.096Z,56.50
2023-05-13T16:21:43.693Z,54.97
2023-05-13T16:24:12.957Z,56.15
2023-05-13T16:26:42.079Z,63.60
2023-05-13T16:29:12.779Z,72.78
2023-05-13T16:31:42.271Z,68.35
2023-05-13T16:34:11.334Z,63.13
2023-05-13T16:36:40.361Z,74.43
2023-05-13T16:39:09.453Z,70.18
2023-05-13T16:41:38.808Z,55.33
2023-05-13T16:44:07.749Z,55.65
2023-05-13T16:46:36.986Z,64.38
2023-05-13T17:10:18.220Z,80.20
2023-05-13T17:12:47.665Z,61.33
2023-05-13T17:15:17.671Z,53.28
2023-05-13T17:49:51.511Z,107.30
2023-05-13T17:52:29.647Z,119.57
2023-05-13T17:55:03.406Z,134.63
2023-05-13T17:57:36.215Z,149.52
2023-05-13T18:00:14.150Z,176.80
2023-05-13T18:02:47.302Z,136.15
2023-05-13T18:05:20.254Z,112.43
2023-05-13T18:07:54.075Z,96.65
2023-05-13T18:10:28.323Z,158.32
2023-05-13T18:13:06.415Z,89.35
2023-05-13T18:15:42.911Z,129.60
2023-05-13T18:18:23.763Z,110.78
2023-05-13T18:21:07.528Z,96.72
2023-05-13T18:23:42.256Z,73.50
2023-05-13T18:26:25.066Z,82.10
2023-05-13T18:29:04.333Z,119.80
2023-05-13T18:31:43.196Z,88.22
2023-05-13T18:34:19.007Z,90.60
2023-05-13T18:36:54.252Z,74.57
2023-05-13T18:39:24.865Z,83.97
2023-05-13T18:41:56.483Z,73.18
2023-05-13T18:44:26.925Z,115.85
2023-05-13T18:46:59.629Z,82.35
2023-05-13T18:49:35.046Z,74.18
2023-05-13T18:52:04.830Z,86.45
2023-05-13T18:54:38.528Z,141.32
2023-05-13T18:57:09.011Z,137.40
2023-05-13T18:59:39.165Z,94.35
2023-05-13T19:02:10.850Z,103.17
2023-05-13T19:04:40.847Z,75.45
2023-05-13T19:07:10.697Z,125.38
2023-05-13T19:09:40.827Z,112.45
2023-05-13T19:12:11.302Z,133.55
2023-05-13T19:14:48.771Z,99.82
2023-05-13T19:17:24.176Z,106.07
2023-05-13T19:19:54.276Z,72.80
2023-05-13T19:22:28.084Z,76.07
2023-05-13T19:24:59.179Z,68.03
2023-05-13T19:27:30.283Z,63.63
2023-05-13T19:30:02.739Z,51.63
2023-05-13T19:32:32.856Z,53.30
2023-05-13T19:35:02.505Z,58.63
2023-05-13T19:37:41.818Z,67.95
2023-05-13T19:40:12.873Z,98.25
2023-05-13T19:42:42.846Z,65.78
2023-05-13T19:45:16.906Z,87.63
2023-05-13T19:47:50.087Z,62.22
2023-05-13T19:50:22.200Z,68.55
2023-05-13T19:52:54.464Z,64.43
2023-05-13T19:55:26.333Z,58.67
2023-05-13T19:57:56.561Z,60.90
2023-05-13T20:00:27.486Z,49.00
2023-05-13T20:03:02.937Z,66.22
2023-05-13T20:05:34.050Z,65.35
2023-05-13T20:08:06.503Z,50.45
2023-05-13T20:10:38.434Z,46.10
2023-05-13T23:30:15.456Z,16.98
2023-05-13T23:32:44.918Z,24.20
2023-05-13T23:35:14.247Z,30.02
2023-05-13T23:37:43.394Z,15.85
2023-05-13T23:40:12.925Z,23.00
2023-05-13T23:42:42.808Z,22.55
2023-05-13T23:45:12.248Z,27.67
2023-05-13T23:47:41.232Z,110.30
2023-05-13T23:50:11.246Z,19.80
2023-05-13T23:52:40.395Z,25.50
2023-05-13T23:55:09.642Z,47.35
2023-05-13T23:57:38.771Z,58.92
